sensor_id;sensor_type;location;lat;lon;timestamp;temperature;humidity
814;DHT22;389;48.710;9.392;2023-05-19T00:00:56;14.70;78.30
814;DHT22;389;48.710;9.392;2023-05-19T00:03:22;14.70;78.50
814;DHT22;389;48.710;9.392;2023-05-19T00:05:48;14.60;78.60
814;DHT22;389;48.710;9.392;2023-05-19T00:08:18;14.60;78.40
814;DHT22;389;48.710;9.392;2023-05-19T00:10:45;14.70;78.60
814;DHT22;389;48.710;9.392;2023-05-19T00:13:10;14.60;78.60
814;DHT22;389;48.710;9.392;2023-05-19T00:15:36;14.60;78.90
814;DHT22;389;48.710;9.392;2023-05-19T00:18:02;14.60;79.50
814;DHT22;389;48.710;9.392;2023-05-19T00:20:28;14.60;79.50
814;DHT22;389;48.710;9.392;2023-05-19T00:22:53;14.60;79.70
814;DHT22;389;48.710;9.392;2023-05-19T00:25:19;14.60;79.90
814;DHT22;389;48.710;9.392;2023-05-19T00:27:44;14.50;80.20
814;DHT22;389;48.710;9.392;2023-05-19T00:30:10;14.50;80.40
814;DHT22;389;48.710;9.392;2023-05-19T00:32:36;14.50;80.40
814;DHT22;389;48.710;9.392;2023-05-19T00:35:01;14.50;80.50
814;DHT22;389;48.710;9.392;2023-05-19T00:37:27;14.40;80.30
814;DHT22;389;48.710;9.392;2023-05-19T00:39:52;14.60;80.70
814;DHT22;389;48.710;9.392;2023-05-19T00:42:19;14.50;80.80
814;DHT22;389;48.710;9.392;2023-05-19T00:44:45;14.40;80.90
814;DHT22;389;48.710;9.392;2023-05-19T00:47:10;14.50;81.10
814;DHT22;389;48.710;9.392;2023-05-19T00:49:36;14.40;81.10
814;DHT22;389;48.710;9.392;2023-05-19T00:52:02;14.40;81.50
814;DHT22;389;48.710;9.392;2023-05-19T00:54:30;14.30;81.50
814;DHT22;389;48.710;9.392;2023-05-19T00:56:58;14.30;81.70
814;DHT22;389;48.710;9.392;2023-05-19T00:59:23;14.40;81.80
814;DHT22;389;48.710;9.392;2023-05-19T01:01:49;14.30;81.50
814;DHT22;389;48.710;9.392;2023-05-19T01:04:17;14.40;82.00
814;DHT22;389;48.710;9.392;2023-05-19T01:06:43;14.20;81.50
814;DHT22;389;48.710;9.392;2023-05-19T01:09:08;14.20;81.40
814;DHT22;389;48.710;9.392;2023-05-19T01:11:34;14.40;81.70
814;DHT22;389;48.710;9.392;2023-05-19T01:13:59;14.30;81.60
814;DHT22;389;48.710;9.392;2023-05-19T01:16:35;14.30;81.70
814;DHT22;389;48.710;9.392;2023-05-19T01:22:11;14.30;81.70
814;DHT22;389;48.710;9.392;2023-05-19T01:30:40;14.20;81.60
814;DHT22;389;48.710;9.392;2023-05-19T01:33:10;14.30;81.90
814;DHT22;389;48.710;9.392;2023-05-19T01:35:39;14.20;81.80
814;DHT22;389;48.710;9.392;2023-05-19T01:38:10;14.40;82.10
814;DHT22;389;48.710;9.392;2023-05-19T01:40:37;14.20;82.00
814;DHT22;389;48.710;9.392;2023-05-19T01:43:03;14.20;81.90
814;DHT22;389;48.710;9.392;2023-05-19T01:45:32;14.20;82.20
814;DHT22;389;48.710;9.392;2023-05-19T01:48:01;14.20;82.20
814;DHT22;389;48.710;9.392;2023-05-19T01:50:27;14.20;82.20
814;DHT22;389;48.710;9.392;2023-05-19T01:52:53;14.10;82.20
814;DHT22;389;48.710;9.392;2023-05-19T01:55:19;14.10;82.10
814;DHT22;389;48.710;9.392;2023-05-19T01:58:01;14.10;82.30
814;DHT22;389;48.710;9.392;2023-05-19T02:09:11;14.10;82.40
814;DHT22;389;48.710;9.392;2023-05-19T02:11:40;14.00;82.30
814;DHT22;389;48.710;9.392;2023-05-19T02:14:19;14.00;82.40
814;DHT22;389;48.710;9.392;2023-05-19T02:16:47;14.00;82.60
814;DHT22;389;48.710;9.392;2023-05-19T02:19:39;13.90;82.50
814;DHT22;389;48.710;9.392;2023-05-19T02:22:05;13.90;82.70
814;DHT22;389;48.710;9.392;2023-05-19T02:24:31;13.80;82.80
814;DHT22;389;48.710;9.392;2023-05-19T02:26:56;13.80;83.10
814;DHT22;389;48.710;9.392;2023-05-19T02:29:25;13.70;83.40
814;DHT22;389;48.710;9.392;2023-05-19T02:31:50;13.60;83.60
814;DHT22;389;48.710;9.392;2023-05-19T02:34:16;13.60;83.90
814;DHT22;389;48.710;9.392;2023-05-19T02:36:42;13.50;83.90
814;DHT22;389;48.710;9.392;2023-05-19T02:39:11;13.50;84.20
814;DHT22;389;48.710;9.392;2023-05-19T02:41:37;13.40;84.10
814;DHT22;389;48.710;9.392;2023-05-19T02:44:03;13.40;84.00
814;DHT22;389;48.710;9.392;2023-05-19T02:46:29;13.40;84.20
814;DHT22;389;48.710;9.392;2023-05-19T02:48:55;13.40;84.20
814;DHT22;389;48.710;9.392;2023-05-19T02:51:20;13.40;84.10
814;DHT22;389;48.710;9.392;2023-05-19T02:53:46;13.30;84.10
814;DHT22;389;48.710;9.392;2023-05-19T02:56:12;13.30;84.20
814;DHT22;389;48.710;9.392;2023-05-19T02:58:37;13.40;84.50
814;DHT22;389;48.710;9.392;2023-05-19T03:01:03;13.30;84.40
814;DHT22;389;48.710;9.392;2023-05-19T03:03:29;13.30;84.60
814;DHT22;389;48.710;9.392;2023-05-19T03:05:55;13.40;84.80
814;DHT22;389;48.710;9.392;2023-05-19T03:08:20;13.20;84.50
814;DHT22;389;48.710;9.392;2023-05-19T03:10:46;13.20;84.60
814;DHT22;389;48.710;9.392;2023-05-19T03:13:12;13.20;84.80
814;DHT22;389;48.710;9.392;2023-05-19T03:15:37;13.20;85.30
814;DHT22;389;48.710;9.392;2023-05-19T03:18:03;13.10;85.20
814;DHT22;389;48.710;9.392;2023-05-19T03:20:29;13.00;85.40
814;DHT22;389;48.710;9.392;2023-05-19T03:22:57;13.00;85.40
814;DHT22;389;48.710;9.392;2023-05-19T03:25:23;12.90;85.60
814;DHT22;389;48.710;9.392;2023-05-19T03:27:49;12.80;86.10
814;DHT22;389;48.710;9.392;2023-05-19T03:30:14;13.00;86.50
814;DHT22;389;48.710;9.392;2023-05-19T03:32:40;12.80;86.50
814;DHT22;389;48.710;9.392;2023-05-19T03:35:06;12.80;86.70
814;DHT22;389;48.710;9.392;2023-05-19T03:37:32;12.70;86.90
814;DHT22;389;48.710;9.392;2023-05-19T03:39:58;12.70;87.50
814;DHT22;389;48.710;9.392;2023-05-19T03:42:24;12.70;87.90
814;DHT22;389;48.710;9.392;2023-05-19T03:44:50;12.60;88.10
814;DHT22;389;48.710;9.392;2023-05-19T03:47:16;12.60;88.30
814;DHT22;389;48.710;9.392;2023-05-19T03:49:41;12.50;88.50
814;DHT22;389;48.710;9.392;2023-05-19T03:52:07;12.50;89.20
814;DHT22;389;48.710;9.392;2023-05-19T03:54:34;12.40;89.30
814;DHT22;389;48.710;9.392;2023-05-19T03:57:00;12.40;89.50
814;DHT22;389;48.710;9.392;2023-05-19T03:59:26;12.30;89.60
814;DHT22;389;48.710;9.392;2023-05-19T04:01:52;12.30;90.10
814;DHT22;389;48.710;9.392;2023-05-19T04:04:18;12.50;90.70
814;DHT22;389;48.710;9.392;2023-05-19T04:06:43;12.30;90.30
814;DHT22;389;48.710;9.392;2023-05-19T04:09:11;12.30;90.30
814;DHT22;389;48.710;9.392;2023-05-19T04:11:38;12.40;90.40
814;DHT22;389;48.710;9.392;2023-05-19T04:14:04;12.30;90.30
814;DHT22;389;48.710;9.392;2023-05-19T04:16:29;12.50;90.50
814;DHT22;389;48.710;9.392;2023-05-19T04:18:55;12.30;90.10
814;DHT22;389;48.710;9.392;2023-05-19T04:21:21;12.40;90.10
814;DHT22;389;48.710;9.392;2023-05-19T04:23:47;12.50;90.10
814;DHT22;389;48.710;9.392;2023-05-19T04:26:13;12.60;90.10
814;DHT22;389;48.710;9.392;2023-05-19T04:28:39;12.50;90.10
814;DHT22;389;48.710;9.392;2023-05-19T04:31:07;12.70;90.30
814;DHT22;389;48.710;9.392;2023-05-19T04:33:46;12.70;90.10
814;DHT22;389;48.710;9.392;2023-05-19T04:36:12;12.60;90.20
814;DHT22;389;48.710;9.392;2023-05-19T04:38:38;12.70;90.60
814;DHT22;389;48.710;9.392;2023-05-19T04:41:07;12.70;90.70
814;DHT22;389;48.710;9.392;2023-05-19T04:43:36;12.80;90.60
814;DHT22;389;48.710;9.392;2023-05-19T04:46:12;12.80;90.50
814;DHT22;389;48.710;9.392;2023-05-19T04:48:37;12.90;90.60
814;DHT22;389;48.710;9.392;2023-05-19T04:51:04;13.00;90.70
814;DHT22;389;48.710;9.392;2023-05-19T04:53:30;13.10;90.50
814;DHT22;389;48.710;9.392;2023-05-19T04:55:57;13.20;90.30
814;DHT22;389;48.710;9.392;2023-05-19T04:58:22;13.30;90.20
814;DHT22;389;48.710;9.392;2023-05-19T05:00:50;13.60;90.20
814;DHT22;389;48.710;9.392;2023-05-19T05:03:16;13.70;90.10
814;DHT22;389;48.710;9.392;2023-05-19T05:05:42;13.90;89.90
814;DHT22;389;48.710;9.392;2023-05-19T05:08:09;14.10;87.50
814;DHT22;389;48.710;9.392;2023-05-19T05:10:35;14.30;86.30
814;DHT22;389;48.710;9.392;2023-05-19T05:13:01;14.50;85.20
814;DHT22;389;48.710;9.392;2023-05-19T05:15:26;14.70;85.20
814;DHT22;389;48.710;9.392;2023-05-19T05:17:54;15.00;84.90
814;DHT22;389;48.710;9.392;2023-05-19T05:20:20;15.20;83.60
814;DHT22;389;48.710;9.392;2023-05-19T05:22:49;15.30;83.00
814;DHT22;389;48.710;9.392;2023-05-19T05:25:16;15.50;82.60
814;DHT22;389;48.710;9.392;2023-05-19T05:27:41;15.70;82.50
814;DHT22;389;48.710;9.392;2023-05-19T05:30:07;16.10;82.00
814;DHT22;389;48.710;9.392;2023-05-19T05:32:33;16.30;80.60
814;DHT22;389;48.710;9.392;2023-05-19T05:34:58;16.80;79.80
814;DHT22;389;48.710;9.392;2023-05-19T05:37:24;17.10;78.70
814;DHT22;389;48.710;9.392;2023-05-19T05:39:50;17.60;78.00
814;DHT22;389;48.710;9.392;2023-05-19T05:42:15;17.80;76.40
814;DHT22;389;48.710;9.392;2023-05-19T05:44:41;17.80;75.20
814;DHT22;389;48.710;9.392;2023-05-19T05:47:07;18.10;75.40
814;DHT22;389;48.710;9.392;2023-05-19T05:49:36;18.20;74.70
814;DHT22;389;48.710;9.392;2023-05-19T05:52:03;18.30;74.10
814;DHT22;389;48.710;9.392;2023-05-19T05:54:29;18.40;73.70
814;DHT22;389;48.710;9.392;2023-05-19T05:56:55;18.50;73.50
814;DHT22;389;48.710;9.392;2023-05-19T05:59:21;18.70;72.90
814;DHT22;389;48.710;9.392;2023-05-19T06:01:46;18.80;72.60
814;DHT22;389;48.710;9.392;2023-05-19T06:04:12;18.90;71.70
814;DHT22;389;48.710;9.392;2023-05-19T06:06:37;19.00;71.40
814;DHT22;389;48.710;9.392;2023-05-19T06:09:03;19.10;70.80
814;DHT22;389;48.710;9.392;2023-05-19T06:11:29;19.30;70.90
814;DHT22;389;48.710;9.392;2023-05-19T06:13:55;19.50;70.80
814;DHT22;389;48.710;9.392;2023-05-19T06:16:21;19.50;70.00
814;DHT22;389;48.710;9.392;2023-05-19T06:18:46;19.50;69.20
814;DHT22;389;48.710;9.392;2023-05-19T06:21:12;19.50;69.10
814;DHT22;389;48.710;9.392;2023-05-19T06:23:40;19.40;68.90
814;DHT22;389;48.710;9.392;2023-05-19T06:26:06;19.50;69.70
814;DHT22;389;48.710;9.392;2023-05-19T06:28:32;19.30;68.60
814;DHT22;389;48.710;9.392;2023-05-19T06:30:58;19.10;69.10
814;DHT22;389;48.710;9.392;2023-05-19T06:33:24;18.90;69.50
814;DHT22;389;48.710;9.392;2023-05-19T06:35:50;18.60;69.70
814;DHT22;389;48.710;9.392;2023-05-19T06:38:15;18.30;70.60
814;DHT22;389;48.710;9.392;2023-05-19T06:40:41;18.20;70.50
814;DHT22;389;48.710;9.392;2023-05-19T06:43:06;18.10;71.10
814;DHT22;389;48.710;9.392;2023-05-19T06:45:32;17.70;71.20
814;DHT22;389;48.710;9.392;2023-05-19T06:47:58;17.40;71.80
814;DHT22;389;48.710;9.392;2023-05-19T06:50:24;17.30;72.30
814;DHT22;389;48.710;9.392;2023-05-19T06:52:50;17.30;73.20
814;DHT22;389;48.710;9.392;2023-05-19T06:55:15;17.30;73.10
814;DHT22;389;48.710;9.392;2023-05-19T06:57:42;17.30;73.20
814;DHT22;389;48.710;9.392;2023-05-19T07:00:08;17.50;73.50
814;DHT22;389;48.710;9.392;2023-05-19T07:02:36;17.50;72.90
814;DHT22;389;48.710;9.392;2023-05-19T07:05:02;17.50;73.10
814;DHT22;389;48.710;9.392;2023-05-19T07:07:27;17.50;73.10
814;DHT22;389;48.710;9.392;2023-05-19T07:09:53;17.50;73.00
814;DHT22;389;48.710;9.392;2023-05-19T07:12:19;17.40;73.60
814;DHT22;389;48.710;9.392;2023-05-19T07:14:44;17.40;74.00
814;DHT22;389;48.710;9.392;2023-05-19T07:17:10;17.40;74.00
814;DHT22;389;48.710;9.392;2023-05-19T07:19:35;17.50;73.50
814;DHT22;389;48.710;9.392;2023-05-19T07:22:01;17.50;72.80
814;DHT22;389;48.710;9.392;2023-05-19T07:24:27;17.50;73.20
814;DHT22;389;48.710;9.392;2023-05-19T07:26:52;17.50;73.20
814;DHT22;389;48.710;9.392;2023-05-19T07:29:18;17.50;73.60
814;DHT22;389;48.710;9.392;2023-05-19T07:31:43;17.50;73.20
814;DHT22;389;48.710;9.392;2023-05-19T07:34:09;17.50;73.10
814;DHT22;389;48.710;9.392;2023-05-19T07:36:35;17.40;73.30
814;DHT22;389;48.710;9.392;2023-05-19T07:39:00;17.50;73.50
814;DHT22;389;48.710;9.392;2023-05-19T07:41:26;17.50;73.10
814;DHT22;389;48.710;9.392;2023-05-19T07:43:52;17.40;72.80
814;DHT22;389;48.710;9.392;2023-05-19T07:46:17;17.30;73.10
814;DHT22;389;48.710;9.392;2023-05-19T07:48:43;17.20;73.40
814;DHT22;389;48.710;9.392;2023-05-19T07:51:10;17.10;74.00
814;DHT22;389;48.710;9.392;2023-05-19T07:53:36;17.00;74.00
814;DHT22;389;48.710;9.392;2023-05-19T07:56:03;17.00;74.00
814;DHT22;389;48.710;9.392;2023-05-19T07:58:38;17.10;74.20
814;DHT22;389;48.710;9.392;2023-05-19T08:01:04;17.20;73.80
814;DHT22;389;48.710;9.392;2023-05-19T08:03:30;17.40;74.20
814;DHT22;389;48.710;9.392;2023-05-19T08:05:56;17.50;73.40
814;DHT22;389;48.710;9.392;2023-05-19T08:08:21;17.60;73.20
814;DHT22;389;48.710;9.392;2023-05-19T08:10:47;17.70;72.80
814;DHT22;389;48.710;9.392;2023-05-19T08:13:13;17.60;71.70
814;DHT22;389;48.710;9.392;2023-05-19T08:15:38;17.70;72.10
814;DHT22;389;48.710;9.392;2023-05-19T08:18:04;17.80;72.00
814;DHT22;389;48.710;9.392;2023-05-19T08:20:30;17.80;71.90
814;DHT22;389;48.710;9.392;2023-05-19T08:22:55;18.00;72.00
814;DHT22;389;48.710;9.392;2023-05-19T08:25:21;18.00;71.90
814;DHT22;389;48.710;9.392;2023-05-19T08:27:47;18.10;71.70
814;DHT22;389;48.710;9.392;2023-05-19T08:30:13;18.10;71.30
814;DHT22;389;48.710;9.392;2023-05-19T08:32:38;18.10;71.30
814;DHT22;389;48.710;9.392;2023-05-19T08:35:04;18.30;71.10
814;DHT22;389;48.710;9.392;2023-05-19T08:37:30;18.30;70.50
814;DHT22;389;48.710;9.392;2023-05-19T08:39:55;18.30;70.40
814;DHT22;389;48.710;9.392;2023-05-19T08:42:21;18.40;70.60
814;DHT22;389;48.710;9.392;2023-05-19T08:44:47;18.60;70.00
814;DHT22;389;48.710;9.392;2023-05-19T08:47:13;18.70;70.60
814;DHT22;389;48.710;9.392;2023-05-19T08:49:46;18.70;70.50
814;DHT22;389;48.710;9.392;2023-05-19T08:52:25;18.70;69.90
814;DHT22;389;48.710;9.392;2023-05-19T08:55:04;18.70;69.60
814;DHT22;389;48.710;9.392;2023-05-19T08:57:34;18.60;70.00
814;DHT22;389;48.710;9.392;2023-05-19T09:00:01;18.50;70.00
814;DHT22;389;48.710;9.392;2023-05-19T09:02:30;18.50;70.50
814;DHT22;389;48.710;9.392;2023-05-19T09:04:56;18.70;70.50
814;DHT22;389;48.710;9.392;2023-05-19T09:07:23;18.50;69.80
814;DHT22;389;48.710;9.392;2023-05-19T09:09:50;18.50;70.50
814;DHT22;389;48.710;9.392;2023-05-19T09:12:16;18.40;70.00
814;DHT22;389;48.710;9.392;2023-05-19T09:14:41;18.30;70.40
814;DHT22;389;48.710;9.392;2023-05-19T09:17:07;18.20;70.60
814;DHT22;389;48.710;9.392;2023-05-19T09:19:32;18.10;71.00
814;DHT22;389;48.710;9.392;2023-05-19T09:21:59;18.20;71.30
814;DHT22;389;48.710;9.392;2023-05-19T09:24:25;18.30;71.30
814;DHT22;389;48.710;9.392;2023-05-19T09:26:54;18.40;69.70
814;DHT22;389;48.710;9.392;2023-05-19T09:29:21;18.50;70.00
814;DHT22;389;48.710;9.392;2023-05-19T09:31:47;18.50;69.80
814;DHT22;389;48.710;9.392;2023-05-19T09:34:14;18.40;70.00
814;DHT22;389;48.710;9.392;2023-05-19T09:36:40;18.20;70.20
814;DHT22;389;48.710;9.392;2023-05-19T09:39:14;18.10;70.70
814;DHT22;389;48.710;9.392;2023-05-19T09:41:40;17.90;71.10
814;DHT22;389;48.710;9.392;2023-05-19T09:44:06;17.80;71.70
814;DHT22;389;48.710;9.392;2023-05-19T09:46:32;17.70;71.10
814;DHT22;389;48.710;9.392;2023-05-19T09:49:07;17.70;71.20
814;DHT22;389;48.710;9.392;2023-05-19T09:51:35;17.90;71.60
814;DHT22;389;48.710;9.392;2023-05-19T09:54:02;17.90;71.30
814;DHT22;389;48.710;9.392;2023-05-19T09:56:37;18.00;71.70
814;DHT22;389;48.710;9.392;2023-05-19T09:59:04;18.10;71.00
814;DHT22;389;48.710;9.392;2023-05-19T10:01:32;18.00;70.60
814;DHT22;389;48.710;9.392;2023-05-19T10:03:59;18.00;70.70
814;DHT22;389;48.710;9.392;2023-05-19T10:06:25;18.00;70.80
814;DHT22;389;48.710;9.392;2023-05-19T10:08:51;17.90;70.30
814;DHT22;389;48.710;9.392;2023-05-19T10:11:17;17.90;70.60
814;DHT22;389;48.710;9.392;2023-05-19T10:13:44;17.90;70.60
814;DHT22;389;48.710;9.392;2023-05-19T10:16:11;17.90;70.20
814;DHT22;389;48.710;9.392;2023-05-19T10:18:38;18.10;70.90
814;DHT22;389;48.710;9.392;2023-05-19T10:21:07;18.00;70.70
814;DHT22;389;48.710;9.392;2023-05-19T10:23:34;18.20;70.80
814;DHT22;389;48.710;9.392;2023-05-19T10:26:00;18.10;70.80
814;DHT22;389;48.710;9.392;2023-05-19T10:28:34;18.10;70.10
814;DHT22;389;48.710;9.392;2023-05-19T10:31:01;18.10;69.90
814;DHT22;389;48.710;9.392;2023-05-19T10:33:58;18.10;70.10
814;DHT22;389;48.710;9.392;2023-05-19T10:36:46;17.90;69.60
814;DHT22;389;48.710;9.392;2023-05-19T10:39:27;17.80;70.10
814;DHT22;389;48.710;9.392;2023-05-19T10:42:07;17.80;70.50
814;DHT22;389;48.710;9.392;2023-05-19T10:47:31;17.90;70.50
814;DHT22;389;48.710;9.392;2023-05-19T10:49:59;17.90;70.20
814;DHT22;389;48.710;9.392;2023-05-19T10:52:25;18.00;70.00
814;DHT22;389;48.710;9.392;2023-05-19T10:54:51;18.10;69.60
814;DHT22;389;48.710;9.392;2023-05-19T10:57:27;18.40;69.50
814;DHT22;389;48.710;9.392;2023-05-19T10:59:56;18.30;69.10
814;DHT22;389;48.710;9.392;2023-05-19T11:02:42;18.40;69.20
814;DHT22;389;48.710;9.392;2023-05-19T11:05:13;18.40;69.20
814;DHT22;389;48.710;9.392;2023-05-19T11:07:58;18.40;69.40
814;DHT22;389;48.710;9.392;2023-05-19T11:10:32;18.50;69.20
814;DHT22;389;48.710;9.392;2023-05-19T11:13:04;18.60;69.30
814;DHT22;389;48.710;9.392;2023-05-19T11:15:34;18.40;69.30
814;DHT22;389;48.710;9.392;2023-05-19T11:18:03;18.40;69.20
814;DHT22;389;48.710;9.392;2023-05-19T11:20:29;18.30;68.90
814;DHT22;389;48.710;9.392;2023-05-19T11:23:15;18.40;69.80
814;DHT22;389;48.710;9.392;2023-05-19T11:25:50;18.40;69.20
814;DHT22;389;48.710;9.392;2023-05-19T11:28:19;18.40;68.70
814;DHT22;389;48.710;9.392;2023-05-19T11:30:46;18.40;68.40
814;DHT22;389;48.710;9.392;2023-05-19T11:33:14;18.30;68.50
814;DHT22;389;48.710;9.392;2023-05-19T11:35:45;18.30;69.20
814;DHT22;389;48.710;9.392;2023-05-19T11:38:12;18.40;69.50
814;DHT22;389;48.710;9.392;2023-05-19T11:40:39;18.40;69.10
814;DHT22;389;48.710;9.392;2023-05-19T11:43:04;18.40;68.70
814;DHT22;389;48.710;9.392;2023-05-19T11:45:31;18.50;68.80
814;DHT22;389;48.710;9.392;2023-05-19T11:47:57;18.50;68.80
814;DHT22;389;48.710;9.392;2023-05-19T11:50:24;18.50;68.60
814;DHT22;389;48.710;9.392;2023-05-19T11:52:53;18.40;68.20
814;DHT22;389;48.710;9.392;2023-05-19T11:55:20;18.40;69.30
814;DHT22;389;48.710;9.392;2023-05-19T11:57:59;18.40;70.00
814;DHT22;389;48.710;9.392;2023-05-19T12:00:25;18.40;69.70
814;DHT22;389;48.710;9.392;2023-05-19T12:02:51;18.50;69.50
814;DHT22;389;48.710;9.392;2023-05-19T12:05:21;18.50;70.10
814;DHT22;389;48.710;9.392;2023-05-19T12:07:48;18.60;69.50
814;DHT22;389;48.710;9.392;2023-05-19T12:10:28;18.70;69.30
814;DHT22;389;48.710;9.392;2023-05-19T12:12:54;18.90;69.50
814;DHT22;389;48.710;9.392;2023-05-19T12:15:30;19.10;69.70
814;DHT22;389;48.710;9.392;2023-05-19T12:17:58;19.30;69.30
814;DHT22;389;48.710;9.392;2023-05-19T12:20:25;19.40;67.60
814;DHT22;389;48.710;9.392;2023-05-19T12:22:53;19.30;67.60
814;DHT22;389;48.710;9.392;2023-05-19T12:25:19;19.10;67.60
814;DHT22;389;48.710;9.392;2023-05-19T12:27:45;19.10;68.30
814;DHT22;389;48.710;9.392;2023-05-19T12:30:12;19.10;68.40
814;DHT22;389;48.710;9.392;2023-05-19T12:32:38;19.20;69.10
814;DHT22;389;48.710;9.392;2023-05-19T12:35:04;19.20;68.80
814;DHT22;389;48.710;9.392;2023-05-19T12:37:31;19.20;68.30
814;DHT22;389;48.710;9.392;2023-05-19T12:40:00;19.10;67.80
814;DHT22;389;48.710;9.392;2023-05-19T12:42:28;19.10;67.60
814;DHT22;389;48.710;9.392;2023-05-19T12:44:59;19.20;67.60
814;DHT22;389;48.710;9.392;2023-05-19T12:47:32;19.20;68.00
814;DHT22;389;48.710;9.392;2023-05-19T12:50:16;19.10;67.90
814;DHT22;389;48.710;9.392;2023-05-19T12:52:49;19.20;68.60
814;DHT22;389;48.710;9.392;2023-05-19T12:55:16;19.20;68.60
814;DHT22;389;48.710;9.392;2023-05-19T12:57:46;19.10;68.40
814;DHT22;389;48.710;9.392;2023-05-19T13:00:49;19.10;68.80
814;DHT22;389;48.710;9.392;2023-05-19T13:03:18;19.00;68.00
814;DHT22;389;48.710;9.392;2023-05-19T13:06:02;18.90;68.40
814;DHT22;389;48.710;9.392;2023-05-19T13:18:24;18.90;68.60
814;DHT22;389;48.710;9.392;2023-05-19T13:21:34;18.80;68.80
814;DHT22;389;48.710;9.392;2023-05-19T13:27:34;18.90;69.10
814;DHT22;389;48.710;9.392;2023-05-19T13:30:16;19.00;68.60
814;DHT22;389;48.710;9.392;2023-05-19T13:32:45;19.10;69.10
814;DHT22;389;48.710;9.392;2023-05-19T13:38:53;19.20;67.80
814;DHT22;389;48.710;9.392;2023-05-19T13:41:51;19.40;67.70
814;DHT22;389;48.710;9.392;2023-05-19T13:44:39;19.40;67.90
814;DHT22;389;48.710;9.392;2023-05-19T13:47:28;19.70;67.90
814;DHT22;389;48.710;9.392;2023-05-19T13:50:11;19.60;67.00
814;DHT22;389;48.710;9.392;2023-05-19T13:52:37;19.80;68.20
814;DHT22;389;48.710;9.392;2023-05-19T13:55:06;19.60;66.60
814;DHT22;389;48.710;9.392;2023-05-19T13:57:49;19.60;66.90
814;DHT22;389;48.710;9.392;2023-05-19T14:00:18;19.70;67.20
814;DHT22;389;48.710;9.392;2023-05-19T14:02:45;19.50;67.10
814;DHT22;389;48.710;9.392;2023-05-19T14:05:11;19.60;67.00
814;DHT22;389;48.710;9.392;2023-05-19T14:07:46;19.60;67.30
814;DHT22;389;48.710;9.392;2023-05-19T14:10:26;19.80;67.40
814;DHT22;389;48.710;9.392;2023-05-19T14:12:52;19.90;67.40
814;DHT22;389;48.710;9.392;2023-05-19T14:15:29;19.80;66.40
814;DHT22;389;48.710;9.392;2023-05-19T14:17:56;19.80;66.50
814;DHT22;389;48.710;9.392;2023-05-19T14:20:23;19.70;66.60
814;DHT22;389;48.710;9.392;2023-05-19T14:22:57;19.70;67.10
814;DHT22;389;48.710;9.392;2023-05-19T14:25:49;19.60;67.20
814;DHT22;389;48.710;9.392;2023-05-19T14:28:35;19.60;67.40
814;DHT22;389;48.710;9.392;2023-05-19T14:34:41;19.50;67.70
814;DHT22;389;48.710;9.392;2023-05-19T14:37:23;19.50;68.20
814;DHT22;389;48.710;9.392;2023-05-19T14:40:10;19.40;67.90
814;DHT22;389;48.710;9.392;2023-05-19T14:43:05;19.60;67.50
814;DHT22;389;48.710;9.392;2023-05-19T14:45:54;19.40;67.90
814;DHT22;389;48.710;9.392;2023-05-19T14:48:59;19.40;68.00
814;DHT22;389;48.710;9.392;2023-05-19T14:51:27;19.60;68.40
814;DHT22;389;48.710;9.392;2023-05-19T14:54:02;19.60;68.20
814;DHT22;389;48.710;9.392;2023-05-19T15:05:19;19.70;67.80
814;DHT22;389;48.710;9.392;2023-05-19T15:08:19;19.60;67.90
814;DHT22;389;48.710;9.392;2023-05-19T15:10:54;19.50;68.10
814;DHT22;389;48.710;9.392;2023-05-19T15:13:19;19.40;68.20
814;DHT22;389;48.710;9.392;2023-05-19T15:15:45;19.20;68.20
814;DHT22;389;48.710;9.392;2023-05-19T15:18:11;19.10;68.80
814;DHT22;389;48.710;9.392;2023-05-19T15:20:37;18.90;69.00
814;DHT22;389;48.710;9.392;2023-05-19T15:23:03;18.70;69.70
814;DHT22;389;48.710;9.392;2023-05-19T15:25:29;18.60;69.80
814;DHT22;389;48.710;9.392;2023-05-19T15:27:54;18.60;70.00
814;DHT22;389;48.710;9.392;2023-05-19T15:30:20;18.50;70.40
814;DHT22;389;48.710;9.392;2023-05-19T15:32:46;18.50;70.70
814;DHT22;389;48.710;9.392;2023-05-19T15:35:12;18.50;70.40
814;DHT22;389;48.710;9.392;2023-05-19T15:37:37;18.50;70.70
814;DHT22;389;48.710;9.392;2023-05-19T15:40:04;18.50;70.40
814;DHT22;389;48.710;9.392;2023-05-19T15:42:29;18.50;70.40
814;DHT22;389;48.710;9.392;2023-05-19T15:44:55;18.40;70.60
814;DHT22;389;48.710;9.392;2023-05-19T15:47:21;18.70;70.60
814;DHT22;389;48.710;9.392;2023-05-19T15:49:46;18.80;70.40
814;DHT22;389;48.710;9.392;2023-05-19T15:52:12;18.80;70.50
814;DHT22;389;48.710;9.392;2023-05-19T15:54:38;18.90;70.50
814;DHT22;389;48.710;9.392;2023-05-19T15:57:04;19.10;70.20
814;DHT22;389;48.710;9.392;2023-05-19T15:59:29;19.20;69.70
814;DHT22;389;48.710;9.392;2023-05-19T16:01:57;19.40;69.60
814;DHT22;389;48.710;9.392;2023-05-19T16:04:22;19.50;69.60
814;DHT22;389;48.710;9.392;2023-05-19T16:06:48;19.60;69.10
814;DHT22;389;48.710;9.392;2023-05-19T16:09:17;19.70;68.80
814;DHT22;389;48.710;9.392;2023-05-19T16:11:43;19.70;68.90
814;DHT22;389;48.710;9.392;2023-05-19T16:14:08;19.60;68.50
814;DHT22;389;48.710;9.392;2023-05-19T16:16:34;19.60;68.50
814;DHT22;389;48.710;9.392;2023-05-19T16:19:00;19.70;68.70
814;DHT22;389;48.710;9.392;2023-05-19T16:21:25;19.80;68.80
814;DHT22;389;48.710;9.392;2023-05-19T16:23:51;19.80;68.30
814;DHT22;389;48.710;9.392;2023-05-19T16:26:16;19.80;68.30
814;DHT22;389;48.710;9.392;2023-05-19T16:28:42;19.80;68.70
814;DHT22;389;48.710;9.392;2023-05-19T16:31:08;19.80;68.50
814;DHT22;389;48.710;9.392;2023-05-19T16:33:33;19.80;68.20
814;DHT22;389;48.710;9.392;2023-05-19T16:35:59;19.80;68.60
814;DHT22;389;48.710;9.392;2023-05-19T16:38:25;19.80;68.60
814;DHT22;389;48.710;9.392;2023-05-19T16:40:51;19.70;69.10
814;DHT22;389;48.710;9.392;2023-05-19T16:43:16;19.60;70.20
814;DHT22;389;48.710;9.392;2023-05-19T16:45:42;19.40;69.90
814;DHT22;389;48.710;9.392;2023-05-19T16:48:09;19.60;69.80
814;DHT22;389;48.710;9.392;2023-05-19T16:50:34;19.60;69.70
814;DHT22;389;48.710;9.392;2023-05-19T16:53:00;19.60;70.50
814;DHT22;389;48.710;9.392;2023-05-19T16:55:26;19.50;70.60
814;DHT22;389;48.710;9.392;2023-05-19T16:57:51;19.50;70.70
814;DHT22;389;48.710;9.392;2023-05-19T17:00:17;19.40;70.30
814;DHT22;389;48.710;9.392;2023-05-19T17:02:43;19.30;70.50
814;DHT22;389;48.710;9.392;2023-05-19T17:05:08;19.10;71.00
814;DHT22;389;48.710;9.392;2023-05-19T17:58:38;21.50;66.10
814;DHT22;389;48.710;9.392;2023-05-19T18:04:18;21.80;66.40
814;DHT22;389;48.710;9.392;2023-05-19T18:06:44;21.80;66.10
814;DHT22;389;48.710;9.392;2023-05-19T18:09:22;21.80;66.20
814;DHT22;389;48.710;9.392;2023-05-19T18:12:34;21.80;66.30
814;DHT22;389;48.710;9.392;2023-05-19T18:21:51;21.40;66.60
814;DHT22;389;48.710;9.392;2023-05-19T18:24:32;21.20;66.50
814;DHT22;389;48.710;9.392;2023-05-19T21:05:55;15.20;91.70
814;DHT22;389;48.710;9.392;2023-05-19T21:08:21;15.10;91.80
814;DHT22;389;48.710;9.392;2023-05-19T21:10:50;15.20;92.00
814;DHT22;389;48.710;9.392;2023-05-19T21:13:20;15.20;92.10